sensor_id;sensor_type;location;lat;lon;timestamp;P1;durP1;ratioP1;P2;durP2;ratioP2
10088;SDS011;51898;49.864;8.550;2022-12-28T00:01:03;10.20;;;6.77;;
10088;SDS011;51898;49.864;8.550;2022-12-28T00:04:07;9.73;;;6.10;;
10088;SDS011;51898;49.864;8.550;2022-12-28T00:07:10;11.50;;;7.77;;
10088;SDS011;51898;49.864;8.550;2022-12-28T00:10:12;17.83;;;6.90;;
10088;SDS011;51898;49.864;8.550;2022-12-28T00:13:13;13.20;;;7.27;;
10088;SDS011;51898;49.864;8.550;2022-12-28T00:19:28;14.70;;;7.60;;
10088;SDS011;51898;49.864;8.550;2022-12-28T00:22:29;14.00;;;6.67;;
10088;SDS011;51898;49.864;8.550;2022-12-28T00:25:34;11.40;;;7.13;;
10088;SDS011;51898;49.864;8.550;2022-12-28T00:28:36;10.50;;;7.03;;
10088;SDS011;51898;49.864;8.550;2022-12-28T00:31:38;11.40;;;7.33;;
10088;SDS011;51898;49.864;8.550;2022-12-28T00:34:49;14.03;;;7.17;;
10088;SDS011;51898;49.864;8.550;2022-12-28T00:37:51;13.07;;;7.30;;
10088;SDS011;51898;49.864;8.550;2022-12-28T00:40:53;9.97;;;6.50;;
10088;SDS011;51898;49.864;8.550;2022-12-28T00:43:55;13.33;;;7.47;;
10088;SDS011;51898;49.864;8.550;2022-12-28T00:46:57;13.30;;;8.10;;
10088;SDS011;51898;49.864;8.550;2022-12-28T00:49:58;12.10;;;7.87;;
10088;SDS011;51898;49.864;8.550;2022-12-28T00:53:01;13.87;;;9.10;;
10088;SDS011;51898;49.864;8.550;2022-12-28T00:56:03;16.00;;;9.47;;
10088;SDS011;51898;49.864;8.550;2022-12-28T00:59:06;15.13;;;9.30;;
10088;SDS011;51898;49.864;8.550;2022-12-28T01:02:08;14.90;;;9.30;;
10088;SDS011;51898;49.864;8.550;2022-12-28T01:05:14;14.20;;;9.27;;
10088;SDS011;51898;49.864;8.550;2022-12-28T01:08:16;20.67;;;9.50;;
10088;SDS011;51898;49.864;8.550;2022-12-28T01:11:19;15.20;;;9.83;;
10088;SDS011;51898;49.864;8.550;2022-12-28T01:14:23;15.70;;;10.40;;
10088;SDS011;51898;49.864;8.550;2022-12-28T01:17:27;15.20;;;9.90;;
10088;SDS011;51898;49.864;8.550;2022-12-28T01:20:38;17.90;;;10.90;;
10088;SDS011;51898;49.864;8.550;2022-12-28T01:23:41;17.17;;;10.03;;
10088;SDS011;51898;49.864;8.550;2022-12-28T01:26:43;14.97;;;9.80;;
10088;SDS011;51898;49.864;8.550;2022-12-28T01:29:45;20.03;;;11.50;;
10088;SDS011;51898;49.864;8.550;2022-12-28T01:32:47;20.07;;;11.27;;
10088;SDS011;51898;49.864;8.550;2022-12-28T01:36:17;20.83;;;10.90;;
10088;SDS011;51898;49.864;8.550;2022-12-28T01:39:26;22.70;;;9.97;;
10088;SDS011;51898;49.864;8.550;2022-12-28T01:42:29;14.80;;;9.60;;
10088;SDS011;51898;49.864;8.550;2022-12-28T01:45:33;18.10;;;10.40;;
10088;SDS011;51898;49.864;8.550;2022-12-28T01:48:36;16.47;;;10.13;;
10088;SDS011;51898;49.864;8.550;2022-12-28T01:51:59;11.70;;;9.43;;
10088;SDS011;51898;49.864;8.550;2022-12-28T01:55:29;18.80;;;9.47;;
10088;SDS011;51898;49.864;8.550;2022-12-28T01:58:44;16.73;;;9.20;;
10088;SDS011;51898;49.864;8.550;2022-12-28T02:01:46;9.27;;;7.97;;
10088;SDS011;51898;49.864;8.550;2022-12-28T02:04:52;10.30;;;7.90;;
10088;SDS011;51898;49.864;8.550;2022-12-28T02:08:05;10.20;;;7.77;;
10088;SDS011;51898;49.864;8.550;2022-12-28T02:11:29;13.10;;;8.37;;
10088;SDS011;51898;49.864;8.550;2022-12-28T02:14:31;13.30;;;7.33;;
10088;SDS011;51898;49.864;8.550;2022-12-28T02:17:34;10.10;;;8.20;;
10088;SDS011;51898;49.864;8.550;2022-12-28T02:24:08;9.37;;;6.83;;
10088;SDS011;51898;49.864;8.550;2022-12-28T02:39:04;11.23;;;7.30;;
10088;SDS011;51898;49.864;8.550;2022-12-28T02:42:25;9.30;;;7.37;;
10088;SDS011;51898;49.864;8.550;2022-12-28T02:49:18;11.60;;;7.90;;
10088;SDS011;51898;49.864;8.550;2022-12-28T02:56:17;12.10;;;7.37;;
10088;SDS011;51898;49.864;8.550;2022-12-28T02:59:44;12.60;;;7.63;;
10088;SDS011;51898;49.864;8.550;2022-12-28T03:03:06;14.90;;;7.07;;
10088;SDS011;51898;49.864;8.550;2022-12-28T03:10:20;10.80;;;7.10;;
10088;SDS011;51898;49.864;8.550;2022-12-28T03:13:39;13.13;;;7.43;;
10088;SDS011;51898;49.864;8.550;2022-12-28T03:16:46;9.93;;;7.80;;
10088;SDS011;51898;49.864;8.550;2022-12-28T03:20:11;8.93;;;7.20;;
10088;SDS011;51898;49.864;8.550;2022-12-28T03:23:37;8.27;;;6.83;;
10088;SDS011;51898;49.864;8.550;2022-12-28T03:27:01;11.30;;;8.10;;
10088;SDS011;51898;49.864;8.550;2022-12-28T03:30:27;10.63;;;7.60;;
10088;SDS011;51898;49.864;8.550;2022-12-28T03:33:52;11.33;;;8.07;;
10088;SDS011;51898;49.864;8.550;2022-12-28T03:37:17;12.97;;;8.10;;
10088;SDS011;51898;49.864;8.550;2022-12-28T03:40:28;11.13;;;7.40;;
10088;SDS011;51898;49.864;8.550;2022-12-28T03:43:39;15.20;;;7.83;;
10088;SDS011;51898;49.864;8.550;2022-12-28T03:46:54;12.07;;;7.60;;
10088;SDS011;51898;49.864;8.550;2022-12-28T03:50:08;14.40;;;8.77;;
10088;SDS011;51898;49.864;8.550;2022-12-28T03:53:10;11.57;;;7.97;;
10088;SDS011;51898;49.864;8.550;2022-12-28T03:56:14;11.43;;;8.00;;
10088;SDS011;51898;49.864;8.550;2022-12-28T03:59:19;14.07;;;8.00;;
10088;SDS011;51898;49.864;8.550;2022-12-28T04:02:21;12.10;;;8.30;;
10088;SDS011;51898;49.864;8.550;2022-12-28T04:05:27;9.77;;;7.67;;
10088;SDS011;51898;49.864;8.550;2022-12-28T04:08:29;9.97;;;7.90;;
10088;SDS011;51898;49.864;8.550;2022-12-28T04:11:33;10.90;;;7.07;;
10088;SDS011;51898;49.864;8.550;2022-12-28T04:14:34;10.80;;;7.57;;
10088;SDS011;51898;49.864;8.550;2022-12-28T04:17:38;11.17;;;7.97;;
10088;SDS011;51898;49.864;8.550;2022-12-28T04:20:40;8.23;;;6.50;;
10088;SDS011;51898;49.864;8.550;2022-12-28T04:23:41;10.87;;;7.30;;
10088;SDS011;51898;49.864;8.550;2022-12-28T04:26:44;9.87;;;6.90;;
10088;SDS011;51898;49.864;8.550;2022-12-28T04:29:45;8.10;;;6.17;;
10088;SDS011;51898;49.864;8.550;2022-12-28T04:32:47;8.97;;;6.60;;
10088;SDS011;51898;49.864;8.550;2022-12-28T04:35:49;9.50;;;6.70;;
10088;SDS011;51898;49.864;8.550;2022-12-28T04:38:52;11.10;;;6.63;;
10088;SDS011;51898;49.864;8.550;2022-12-28T04:41:57;10.80;;;6.90;;
10088;SDS011;51898;49.864;8.550;2022-12-28T04:44:58;7.87;;;6.63;;
10088;SDS011;51898;49.864;8.550;2022-12-28T04:48:00;8.03;;;6.27;;
10088;SDS011;51898;49.864;8.550;2022-12-28T04:51:22;10.57;;;6.77;;
10088;SDS011;51898;49.864;8.550;2022-12-28T04:54:25;9.20;;;6.13;;
10088;SDS011;51898;49.864;8.550;2022-12-28T04:57:27;7.80;;;6.10;;
10088;SDS011;51898;49.864;8.550;2022-12-28T05:00:29;7.63;;;6.10;;
10088;SDS011;51898;49.864;8.550;2022-12-28T05:03:34;9.17;;;6.10;;
10088;SDS011;51898;49.864;8.550;2022-12-28T05:06:39;7.43;;;5.43;;
10088;SDS011;51898;49.864;8.550;2022-12-28T05:09:41;8.07;;;5.37;;
10088;SDS011;51898;49.864;8.550;2022-12-28T05:12:43;6.20;;;4.90;;
10088;SDS011;51898;49.864;8.550;2022-12-28T05:15:52;8.03;;;5.33;;
10088;SDS011;51898;49.864;8.550;2022-12-28T05:18:54;7.77;;;5.40;;
10088;SDS011;51898;49.864;8.550;2022-12-28T05:22:21;8.13;;;5.73;;
10088;SDS011;51898;49.864;8.550;2022-12-28T05:25:23;5.80;;;4.57;;
10088;SDS011;51898;49.864;8.550;2022-12-28T05:28:27;6.43;;;5.20;;
10088;SDS011;51898;49.864;8.550;2022-12-28T05:31:29;10.33;;;5.67;;
10088;SDS011;51898;49.864;8.550;2022-12-28T05:34:33;6.97;;;5.40;;
10088;SDS011;51898;49.864;8.550;2022-12-28T05:37:35;9.40;;;5.40;;
10088;SDS011;51898;49.864;8.550;2022-12-28T05:40:37;9.10;;;5.67;;
10088;SDS011;51898;49.864;8.550;2022-12-28T05:43:42;8.80;;;5.33;;
10088;SDS011;51898;49.864;8.550;2022-12-28T05:46:45;7.67;;;5.70;;
10088;SDS011;51898;49.864;8.550;2022-12-28T05:49:47;7.10;;;4.83;;
10088;SDS011;51898;49.864;8.550;2022-12-28T05:52:52;7.17;;;5.50;;
10088;SDS011;51898;49.864;8.550;2022-12-28T05:55:59;7.33;;;5.53;;
10088;SDS011;51898;49.864;8.550;2022-12-28T05:59:10;10.80;;;5.10;;
10088;SDS011;51898;49.864;8.550;2022-12-28T06:02:20;7.27;;;5.10;;
10088;SDS011;51898;49.864;8.550;2022-12-28T06:05:28;8.63;;;4.93;;
10088;SDS011;51898;49.864;8.550;2022-12-28T06:08:32;8.50;;;5.40;;
10088;SDS011;51898;49.864;8.550;2022-12-28T06:11:34;9.33;;;5.50;;
10088;SDS011;51898;49.864;8.550;2022-12-28T06:14:37;5.83;;;4.93;;
10088;SDS011;51898;49.864;8.550;2022-12-28T06:17:38;9.07;;;5.10;;
10088;SDS011;51898;49.864;8.550;2022-12-28T06:20:40;8.90;;;5.00;;
10088;SDS011;51898;49.864;8.550;2022-12-28T06:23:48;6.03;;;4.60;;
10088;SDS011;51898;49.864;8.550;2022-12-28T06:26:50;11.90;;;4.53;;
10088;SDS011;51898;49.864;8.550;2022-12-28T06:29:52;7.43;;;4.63;;
10088;SDS011;51898;49.864;8.550;2022-12-28T06:32:54;7.10;;;4.63;;
10088;SDS011;51898;49.864;8.550;2022-12-28T06:36:00;6.90;;;5.37;;
10088;SDS011;51898;49.864;8.550;2022-12-28T06:39:03;7.03;;;5.23;;
10088;SDS011;51898;49.864;8.550;2022-12-28T06:42:08;8.53;;;5.00;;
10088;SDS011;51898;49.864;8.550;2022-12-28T06:45:10;8.73;;;5.40;;
10088;SDS011;51898;49.864;8.550;2022-12-28T06:48:12;12.97;;;6.10;;
10088;SDS011;51898;49.864;8.550;2022-12-28T06:51:15;7.07;;;4.60;;
10088;SDS011;51898;49.864;8.550;2022-12-28T06:54:35;8.30;;;4.00;;
10088;SDS011;51898;49.864;8.550;2022-12-28T06:58:02;8.80;;;5.03;;
10088;SDS011;51898;49.864;8.550;2022-12-28T07:01:04;8.33;;;4.27;;
10088;SDS011;51898;49.864;8.550;2022-12-28T07:04:15;5.07;;;4.13;;
10088;SDS011;51898;49.864;8.550;2022-12-28T07:07:17;5.70;;;4.23;;
10088;SDS011;51898;49.864;8.550;2022-12-28T07:10:21;5.73;;;4.30;;
10088;SDS011;51898;49.864;8.550;2022-12-28T07:13:25;5.80;;;4.07;;
10088;SDS011;51898;49.864;8.550;2022-12-28T07:16:34;4.50;;;3.97;;
10088;SDS011;51898;49.864;8.550;2022-12-28T07:19:35;9.10;;;4.20;;
10088;SDS011;51898;49.864;8.550;2022-12-28T07:22:37;5.57;;;3.70;;
10088;SDS011;51898;49.864;8.550;2022-12-28T07:25:44;6.03;;;3.93;;
10088;SDS011;51898;49.864;8.550;2022-12-28T07:28:58;5.33;;;4.83;;
10088;SDS011;51898;49.864;8.550;2022-12-28T07:32:11;6.03;;;3.90;;
10088;SDS011;51898;49.864;8.550;2022-12-28T07:35:21;5.30;;;3.90;;
10088;SDS011;51898;49.864;8.550;2022-12-28T07:38:31;6.27;;;3.90;;
10088;SDS011;51898;49.864;8.550;2022-12-28T07:41:38;6.80;;;3.53;;
10088;SDS011;51898;49.864;8.550;2022-12-28T07:44:43;3.67;;;3.27;;
10088;SDS011;51898;49.864;8.550;2022-12-28T07:47:49;5.33;;;3.20;;
10088;SDS011;51898;49.864;8.550;2022-12-28T07:50:51;4.90;;;3.80;;
10088;SDS011;51898;49.864;8.550;2022-12-28T07:53:56;3.83;;;3.50;;
10088;SDS011;51898;49.864;8.550;2022-12-28T07:56:59;5.00;;;3.83;;
10088;SDS011;51898;49.864;8.550;2022-12-28T08:00:04;5.60;;;3.33;;
10088;SDS011;51898;49.864;8.550;2022-12-28T08:03:07;6.73;;;4.10;;
10088;SDS011;51898;49.864;8.550;2022-12-28T08:06:11;5.90;;;3.40;;
10088;SDS011;51898;49.864;8.550;2022-12-28T08:09:14;5.33;;;3.13;;
10088;SDS011;51898;49.864;8.550;2022-12-28T08:12:17;4.40;;;3.67;;
10088;SDS011;51898;49.864;8.550;2022-12-28T08:15:19;7.10;;;5.30;;
10088;SDS011;51898;49.864;8.550;2022-12-28T08:18:21;6.07;;;3.80;;
10088;SDS011;51898;49.864;8.550;2022-12-28T08:21:37;5.90;;;3.40;;
10088;SDS011;51898;49.864;8.550;2022-12-28T08:24:41;5.67;;;3.17;;
10088;SDS011;51898;49.864;8.550;2022-12-28T08:27:49;8.00;;;3.23;;
10088;SDS011;51898;49.864;8.550;2022-12-28T08:30:56;4.07;;;3.20;;
10088;SDS011;51898;49.864;8.550;2022-12-28T08:34:07;5.50;;;3.60;;
10088;SDS011;51898;49.864;8.550;2022-12-28T08:37:13;4.50;;;2.90;;
10088;SDS011;51898;49.864;8.550;2022-12-28T08:40:21;6.63;;;2.40;;
10088;SDS011;51898;49.864;8.550;2022-12-28T08:43:27;3.47;;;2.87;;
10088;SDS011;51898;49.864;8.550;2022-12-28T08:46:31;3.80;;;2.77;;
10088;SDS011;51898;49.864;8.550;2022-12-28T08:49:40;6.03;;;3.00;;
10088;SDS011;51898;49.864;8.550;2022-12-28T08:52:45;6.80;;;3.37;;
10088;SDS011;51898;49.864;8.550;2022-12-28T08:55:52;3.87;;;2.57;;
10088;SDS011;51898;49.864;8.550;2022-12-28T08:59:30;7.90;;;2.83;;
10088;SDS011;51898;49.864;8.550;2022-12-28T09:02:37;4.20;;;3.10;;
10088;SDS011;51898;49.864;8.550;2022-12-28T09:05:40;8.10;;;3.27;;
10088;SDS011;51898;49.864;8.550;2022-12-28T09:08:56;2.60;;;2.40;;
10088;SDS011;51898;49.864;8.550;2022-12-28T09:12:07;3.03;;;2.27;;
10088;SDS011;51898;49.864;8.550;2022-12-28T09:15:14;2.80;;;2.50;;
10088;SDS011;51898;49.864;8.550;2022-12-28T09:18:16;4.03;;;2.43;;
10088;SDS011;51898;49.864;8.550;2022-12-28T09:21:21;3.50;;;2.70;;
10088;SDS011;51898;49.864;8.550;2022-12-28T09:24:24;3.40;;;2.40;;
10088;SDS011;51898;49.864;8.550;2022-12-28T09:27:26;5.20;;;2.50;;
10088;SDS011;51898;49.864;8.550;2022-12-28T09:30:37;2.60;;;2.40;;
10088;SDS011;51898;49.864;8.550;2022-12-28T09:33:39;2.73;;;2.30;;
10088;SDS011;51898;49.864;8.550;2022-12-28T09:37:20;4.73;;;3.33;;
10088;SDS011;51898;49.864;8.550;2022-12-28T09:40:27;3.77;;;2.33;;
10088;SDS011;51898;49.864;8.550;2022-12-28T09:43:43;4.03;;;2.63;;
10088;SDS011;51898;49.864;8.550;2022-12-28T09:46:50;8.30;;;3.00;;
10088;SDS011;51898;49.864;8.550;2022-12-28T09:50:06;4.70;;;2.40;;
10088;SDS011;51898;49.864;8.550;2022-12-28T09:53:26;3.37;;;2.10;;
10088;SDS011;51898;49.864;8.550;2022-12-28T09:56:35;4.87;;;2.20;;
10088;SDS011;51898;49.864;8.550;2022-12-28T09:59:41;4.20;;;2.30;;
10088;SDS011;51898;49.864;8.550;2022-12-28T10:03:00;7.53;;;2.37;;
10088;SDS011;51898;49.864;8.550;2022-12-28T10:06:11;3.33;;;2.00;;
10088;SDS011;51898;49.864;8.550;2022-12-28T10:09:24;2.27;;;1.90;;
10088;SDS011;51898;49.864;8.550;2022-12-28T10:12:34;2.13;;;1.87;;
10088;SDS011;51898;49.864;8.550;2022-12-28T10:15:41;2.83;;;1.97;;
10088;SDS011;51898;49.864;8.550;2022-12-28T10:18:44;2.00;;;1.67;;
10088;SDS011;51898;49.864;8.550;2022-12-28T10:22:00;5.43;;;2.47;;
10088;SDS011;51898;49.864;8.550;2022-12-28T10:25:17;2.50;;;2.07;;
10088;SDS011;51898;49.864;8.550;2022-12-28T10:28:27;4.07;;;1.90;;
10088;SDS011;51898;49.864;8.550;2022-12-28T10:31:59;3.73;;;2.20;;
10088;SDS011;51898;49.864;8.550;2022-12-28T10:35:20;4.40;;;2.00;;
10088;SDS011;51898;49.864;8.550;2022-12-28T10:38:29;3.30;;;2.10;;
10088;SDS011;51898;49.864;8.550;2022-12-28T10:41:43;3.93;;;2.40;;
10088;SDS011;51898;49.864;8.550;2022-12-28T10:44:46;4.83;;;1.80;;
10088;SDS011;51898;49.864;8.550;2022-12-28T10:48:07;3.97;;;1.83;;
10088;SDS011;51898;49.864;8.550;2022-12-28T10:51:21;3.23;;;1.90;;
10088;SDS011;51898;49.864;8.550;2022-12-28T10:54:26;3.00;;;2.00;;
10088;SDS011;51898;49.864;8.550;2022-12-28T10:57:39;1.77;;;1.67;;
10088;SDS011;51898;49.864;8.550;2022-12-28T11:04:23;3.23;;;2.40;;
10088;SDS011;51898;49.864;8.550;2022-12-28T11:07:33;5.13;;;2.10;;
10088;SDS011;51898;49.864;8.550;2022-12-28T11:10:36;4.60;;;2.03;;
10088;SDS011;51898;49.864;8.550;2022-12-28T11:13:40;3.23;;;1.90;;
10088;SDS011;51898;49.864;8.550;2022-12-28T11:16:46;3.27;;;2.13;;
10088;SDS011;51898;49.864;8.550;2022-12-28T11:20:25;1.97;;;1.77;;
10088;SDS011;51898;49.864;8.550;2022-12-28T11:23:20;2.90;;;1.87;;
10088;SDS011;51898;49.864;8.550;2022-12-28T11:26:50;5.00;;;1.80;;
10088;SDS011;51898;49.864;8.550;2022-12-28T11:29:54;4.20;;;2.03;;
10088;SDS011;51898;49.864;8.550;2022-12-28T11:33:00;2.40;;;1.80;;
10088;SDS011;51898;49.864;8.550;2022-12-28T11:36:28;3.30;;;1.50;;
10088;SDS011;51898;49.864;8.550;2022-12-28T11:39:42;3.80;;;1.87;;
10088;SDS011;51898;49.864;8.550;2022-12-28T11:43:10;4.70;;;1.90;;
10088;SDS011;51898;49.864;8.550;2022-12-28T11:46:36;4.00;;;2.07;;
10088;SDS011;51898;49.864;8.550;2022-12-28T11:49:39;3.63;;;1.83;;
10088;SDS011;51898;49.864;8.550;2022-12-28T11:52:46;2.00;;;1.77;;
10088;SDS011;51898;49.864;8.550;2022-12-28T11:55:57;3.87;;;2.10;;
10088;SDS011;51898;49.864;8.550;2022-12-28T11:59:34;4.37;;;2.00;;
10088;SDS011;51898;49.864;8.550;2022-12-28T12:02:43;2.70;;;1.80;;
10088;SDS011;51898;49.864;8.550;2022-12-28T12:06:00;2.37;;;1.70;;
10088;SDS011;51898;49.864;8.550;2022-12-28T12:13:02;5.37;;;1.60;;
10088;SDS011;51898;49.864;8.550;2022-12-28T12:16:34;2.67;;;1.60;;
10088;SDS011;51898;49.864;8.550;2022-12-28T12:20:02;3.60;;;1.80;;
10088;SDS011;51898;49.864;8.550;2022-12-28T12:30:27;3.67;;;1.77;;
10088;SDS011;51898;49.864;8.550;2022-12-28T12:33:45;3.00;;;1.73;;
10088;SDS011;51898;49.864;8.550;2022-12-28T13:06:01;2.70;;;1.70;;
10088;SDS011;51898;49.864;8.550;2022-12-28T13:09:06;6.07;;;2.10;;
10088;SDS011;51898;49.864;8.550;2022-12-28T13:12:16;5.07;;;2.07;;
10088;SDS011;51898;49.864;8.550;2022-12-28T13:15:20;3.33;;;1.80;;
10088;SDS011;51898;49.864;8.550;2022-12-28T13:18:22;3.33;;;2.07;;
10088;SDS011;51898;49.864;8.550;2022-12-28T13:21:45;4.40;;;2.40;;
10088;SDS011;51898;49.864;8.550;2022-12-28T13:24:49;4.70;;;2.37;;
10088;SDS011;51898;49.864;8.550;2022-12-28T13:27:51;3.83;;;2.30;;
10088;SDS011;51898;49.864;8.550;2022-12-28T13:30:55;3.37;;;2.53;;
10088;SDS011;51898;49.864;8.550;2022-12-28T13:34:47;6.53;;;2.47;;
10088;SDS011;51898;49.864;8.550;2022-12-28T13:37:36;2.33;;;2.10;;
10088;SDS011;51898;49.864;8.550;2022-12-28T13:40:49;3.80;;;2.43;;
10088;SDS011;51898;49.864;8.550;2022-12-28T13:47:26;3.80;;;2.77;;
10088;SDS011;51898;49.864;8.550;2022-12-28T13:50:38;2.67;;;1.93;;
10088;SDS011;51898;49.864;8.550;2022-12-28T13:53:44;5.43;;;3.20;;
10088;SDS011;51898;49.864;8.550;2022-12-28T13:56:51;4.13;;;2.60;;
10088;SDS011;51898;49.864;8.550;2022-12-28T14:00:16;4.50;;;3.00;;
10088;SDS011;51898;49.864;8.550;2022-12-28T14:03:20;4.17;;;3.30;;
10088;SDS011;51898;49.864;8.550;2022-12-28T14:06:22;5.20;;;3.17;;
10088;SDS011;51898;49.864;8.550;2022-12-28T14:09:25;3.53;;;2.63;;
10088;SDS011;51898;49.864;8.550;2022-12-28T14:12:28;5.10;;;3.03;;
10088;SDS011;51898;49.864;8.550;2022-12-28T14:18:44;3.80;;;2.70;;
10088;SDS011;51898;49.864;8.550;2022-12-28T14:21:52;2.83;;;2.30;;
10088;SDS011;51898;49.864;8.550;2022-12-28T14:25:13;5.57;;;2.90;;
10088;SDS011;51898;49.864;8.550;2022-12-28T14:32:03;4.57;;;2.57;;
10088;SDS011;51898;49.864;8.550;2022-12-28T14:35:16;4.27;;;2.33;;
10088;SDS011;51898;49.864;8.550;2022-12-28T14:38:21;2.30;;;1.87;;
10088;SDS011;51898;49.864;8.550;2022-12-28T14:45:30;4.47;;;2.30;;
10088;SDS011;51898;49.864;8.550;2022-12-28T14:48:57;2.10;;;1.87;;
10088;SDS011;51898;49.864;8.550;2022-12-28T15:05:42;2.03;;;1.83;;
10088;SDS011;51898;49.864;8.550;2022-12-28T15:08:52;4.70;;;2.07;;
10088;SDS011;51898;49.864;8.550;2022-12-28T15:12:10;2.87;;;2.07;;
10088;SDS011;51898;49.864;8.550;2022-12-28T15:15:20;4.17;;;1.97;;
10088;SDS011;51898;49.864;8.550;2022-12-28T15:18:27;2.70;;;1.90;;
10088;SDS011;51898;49.864;8.550;2022-12-28T15:21:31;2.53;;;2.10;;
10088;SDS011;51898;49.864;8.550;2022-12-28T15:24:33;1.90;;;1.80;;
10088;SDS011;51898;49.864;8.550;2022-12-28T15:27:35;2.43;;;1.73;;
10088;SDS011;51898;49.864;8.550;2022-12-28T15:30:39;4.30;;;1.70;;
10088;SDS011;51898;49.864;8.550;2022-12-28T15:33:45;2.37;;;1.67;;
10088;SDS011;51898;49.864;8.550;2022-12-28T15:36:47;5.20;;;1.60;;
10088;SDS011;51898;49.864;8.550;2022-12-28T15:39:55;2.40;;;2.20;;
10088;SDS011;51898;49.864;8.550;2022-12-28T15:42:57;1.93;;;1.77;;
10088;SDS011;51898;49.864;8.550;2022-12-28T15:45:59;3.77;;;1.50;;
10088;SDS011;51898;49.864;8.550;2022-12-28T15:49:01;5.40;;;1.70;;
10088;SDS011;51898;49.864;8.550;2022-12-28T15:52:06;5.87;;;2.00;;
10088;SDS011;51898;49.864;8.550;2022-12-28T15:55:10;1.90;;;1.67;;
10088;SDS011;51898;49.864;8.550;2022-12-28T15:58:12;3.20;;;2.00;;
10088;SDS011;51898;49.864;8.550;2022-12-28T16:01:13;4.10;;;1.80;;
10088;SDS011;51898;49.864;8.550;2022-12-28T16:04:16;2.33;;;1.70;;
10088;SDS011;51898;49.864;8.550;2022-12-28T16:07:18;3.30;;;1.90;;
10088;SDS011;51898;49.864;8.550;2022-12-28T16:10:20;2.90;;;2.50;;
10088;SDS011;51898;49.864;8.550;2022-12-28T16:13:22;2.83;;;2.00;;
10088;SDS011;51898;49.864;8.550;2022-12-28T16:16:28;2.47;;;1.70;;
10088;SDS011;51898;49.864;8.550;2022-12-28T16:19:35;2.90;;;2.33;;
10088;SDS011;51898;49.864;8.550;2022-12-28T16:22:38;3.60;;;2.10;;
10088;SDS011;51898;49.864;8.550;2022-12-28T16:25:48;4.17;;;2.47;;
10088;SDS011;51898;49.864;8.550;2022-12-28T16:28:50;2.43;;;2.10;;
10088;SDS011;51898;49.864;8.550;2022-12-28T16:31:52;2.50;;;2.30;;
10088;SDS011;51898;49.864;8.550;2022-12-28T16:34:55;5.37;;;2.60;;
10088;SDS011;51898;49.864;8.550;2022-12-28T16:37:58;4.03;;;2.37;;
10088;SDS011;51898;49.864;8.550;2022-12-28T16:41:03;4.23;;;2.80;;
10088;SDS011;51898;49.864;8.550;2022-12-28T16:44:07;2.93;;;2.50;;
10088;SDS011;51898;49.864;8.550;2022-12-28T16:47:17;5.40;;;1.87;;
10088;SDS011;51898;49.864;8.550;2022-12-28T16:50:20;2.77;;;1.60;;
10088;SDS011;51898;49.864;8.550;2022-12-28T16:53:22;2.40;;;1.60;;
10088;SDS011;51898;49.864;8.550;2022-12-28T16:56:25;2.33;;;1.73;;
10088;SDS011;51898;49.864;8.550;2022-12-28T16:59:27;2.77;;;2.17;;
10088;SDS011;51898;49.864;8.550;2022-12-28T17:02:29;2.37;;;1.70;;
10088;SDS011;51898;49.864;8.550;2022-12-28T17:05:31;2.77;;;1.77;;
10088;SDS011;51898;49.864;8.550;2022-12-28T17:08:34;2.40;;;1.73;;
10088;SDS011;51898;49.864;8.550;2022-12-28T17:11:36;4.60;;;1.70;;
10088;SDS011;51898;49.864;8.550;2022-12-28T17:14:38;2.63;;;1.80;;
10088;SDS011;51898;49.864;8.550;2022-12-28T17:17:39;2.37;;;1.73;;
10088;SDS011;51898;49.864;8.550;2022-12-28T17:20:42;4.17;;;1.50;;
10088;SDS011;51898;49.864;8.550;2022-12-28T17:23:45;3.10;;;1.70;;
10088;SDS011;51898;49.864;8.550;2022-12-28T17:26:47;2.93;;;2.27;;
10088;SDS011;51898;49.864;8.550;2022-12-28T17:29:48;3.40;;;2.03;;
10088;SDS011;51898;49.864;8.550;2022-12-28T17:32:50;3.40;;;1.80;;
10088;SDS011;51898;49.864;8.550;2022-12-28T17:35:53;6.43;;;2.50;;
10088;SDS011;51898;49.864;8.550;2022-12-28T17:38:56;2.63;;;1.63;;
10088;SDS011;51898;49.864;8.550;2022-12-28T17:41:57;2.80;;;2.40;;
10088;SDS011;51898;49.864;8.550;2022-12-28T17:44:59;3.63;;;2.50;;
10088;SDS011;51898;49.864;8.550;2022-12-28T17:48:08;2.63;;;2.20;;
10088;SDS011;51898;49.864;8.550;2022-12-28T17:51:09;4.73;;;2.50;;
10088;SDS011;51898;49.864;8.550;2022-12-28T17:54:12;16.73;;;3.50;;
10088;SDS011;51898;49.864;8.550;2022-12-28T17:57:15;3.47;;;2.30;;
10088;SDS011;51898;49.864;8.550;2022-12-28T18:00:17;2.10;;;1.90;;
10088;SDS011;51898;49.864;8.550;2022-12-28T18:03:19;4.30;;;2.63;;
10088;SDS011;51898;49.864;8.550;2022-12-28T18:06:22;5.10;;;2.60;;
10088;SDS011;51898;49.864;8.550;2022-12-28T18:09:24;3.03;;;2.37;;
10088;SDS011;51898;49.864;8.550;2022-12-28T18:12:28;3.47;;;2.73;;
10088;SDS011;51898;49.864;8.550;2022-12-28T18:15:31;4.60;;;3.07;;
10088;SDS011;51898;49.864;8.550;2022-12-28T18:18:34;4.00;;;2.90;;
10088;SDS011;51898;49.864;8.550;2022-12-28T18:21:38;5.10;;;3.20;;
10088;SDS011;51898;49.864;8.550;2022-12-28T18:24:41;4.10;;;3.23;;
10088;SDS011;51898;49.864;8.550;2022-12-28T18:27:43;3.73;;;2.87;;
10088;SDS011;51898;49.864;8.550;2022-12-28T18:30:45;3.03;;;2.33;;
10088;SDS011;51898;49.864;8.550;2022-12-28T18:33:46;3.27;;;2.73;;
10088;SDS011;51898;49.864;8.550;2022-12-28T18:36:48;2.93;;;2.63;;
10088;SDS011;51898;49.864;8.550;2022-12-28T18:39:50;5.53;;;2.80;;
10088;SDS011;51898;49.864;8.550;2022-12-28T18:42:52;4.63;;;2.93;;
10088;SDS011;51898;49.864;8.550;2022-12-28T18:45:57;4.60;;;3.27;;
10088;SDS011;51898;49.864;8.550;2022-12-28T18:49:00;4.30;;;2.80;;
10088;SDS011;51898;49.864;8.550;2022-12-28T18:52:03;4.50;;;2.67;;
10088;SDS011;51898;49.864;8.550;2022-12-28T18:55:11;2.77;;;2.37;;
10088;SDS011;51898;49.864;8.550;2022-12-28T18:58:13;5.23;;;2.80;;
10088;SDS011;51898;49.864;8.550;2022-12-28T19:01:15;4.67;;;3.00;;
10088;SDS011;51898;49.864;8.550;2022-12-28T19:04:39;3.53;;;3.10;;
10088;SDS011;51898;49.864;8.550;2022-12-28T19:07:41;4.97;;;3.13;;
10088;SDS011;51898;49.864;8.550;2022-12-28T19:10:52;4.47;;;2.80;;
10088;SDS011;51898;49.864;8.550;2022-12-28T19:13:54;3.87;;;2.93;;
10088;SDS011;51898;49.864;8.550;2022-12-28T19:16:55;5.90;;;3.00;;
10088;SDS011;51898;49.864;8.550;2022-12-28T19:19:57;4.80;;;3.50;;
10088;SDS011;51898;49.864;8.550;2022-12-28T19:22:59;5.27;;;3.00;;
10088;SDS011;51898;49.864;8.550;2022-12-28T19:26:01;4.50;;;2.77;;
10088;SDS011;51898;49.864;8.550;2022-12-28T19:29:03;3.30;;;3.00;;
10088;SDS011;51898;49.864;8.550;2022-12-28T19:32:05;5.93;;;3.43;;
10088;SDS011;51898;49.864;8.550;2022-12-28T19:35:07;4.23;;;3.00;;
10088;SDS011;51898;49.864;8.550;2022-12-28T19:38:09;3.20;;;2.90;;
10088;SDS011;51898;49.864;8.550;2022-12-28T19:41:11;5.80;;;3.50;;
10088;SDS011;51898;49.864;8.550;2022-12-28T19:44:15;4.27;;;2.80;;
10088;SDS011;51898;49.864;8.550;2022-12-28T19:47:20;2.87;;;2.50;;
10088;SDS011;51898;49.864;8.550;2022-12-28T19:50:21;5.17;;;2.90;;
10088;SDS011;51898;49.864;8.550;2022-12-28T19:53:24;6.10;;;2.40;;
10088;SDS011;51898;49.864;8.550;2022-12-28T19:56:27;4.23;;;2.43;;
10088;SDS011;51898;49.864;8.550;2022-12-28T19:59:30;5.23;;;2.37;;
10088;SDS011;51898;49.864;8.550;2022-12-28T20:02:32;4.17;;;2.40;;
10088;SDS011;51898;49.864;8.550;2022-12-28T20:05:34;2.70;;;2.43;;
10088;SDS011;51898;49.864;8.550;2022-12-28T20:08:36;3.90;;;2.23;;
10088;SDS011;51898;49.864;8.550;2022-12-28T20:11:38;3.00;;;2.03;;
10088;SDS011;51898;49.864;8.550;2022-12-28T20:14:41;2.77;;;2.13;;
10088;SDS011;51898;49.864;8.550;2022-12-28T20:17:43;6.40;;;1.90;;
10088;SDS011;51898;49.864;8.550;2022-12-28T20:20:47;2.77;;;2.47;;
10088;SDS011;51898;49.864;8.550;2022-12-28T20:24:16;5.50;;;2.23;;
10088;SDS011;51898;49.864;8.550;2022-12-28T20:27:22;2.27;;;2.03;;